Terminal Aerodrome Forecast
Issued by NWS

Home | Current Version | Previous Version | Text Only | Print | Product List | Glossary On
Versions: 1 2 3 4 5 6 7 8 9 10 11 12
000
FTUS42 TJSJ 021742
TAFJSJ
TAF
TJSJ 021742Z 0218/0318 08014KT P6SM VCSH SCT035 SCT050
     FM022300 09008KT P6SM VCSH SCT030
      TEMPO 0300/0304 08014G25KT SHRA BKN030
     FM031300 08012KT P6SM SCT025=

USA.gov is the U.S. government's official web portal to all federal, state and local government web resources and services.